Orange8 — JL6278 — position and weather

sailwx.info

Track history (hours):
 
Tides and Currents Weather Stations Pressure Air Temp Water Temp Dewpoint Dewpoint Depression Visibility Wind Speed Wind Dir Waves Ship Positions

Orange8

Last reported at 2016-Aug-27 14:33 UTC. Time now 2016-Aug-27 22:15 UTC.
Position N 34°37' E 134°57'.

Length 164 m; draft 5 m.

Type: Passenger vessel. MMSI: 431501603.

Date/timePositionNaut miles runAvg speedWind from/ knotsBaromVisibWave heightAir tempDewpointWater temp
2016-Aug-27 14:33N 34°37' E 134°57'1717.2
2016-Aug-27 13:33N 34°36' E 135°18'6 5.7
2016-Aug-27 12:26N 34°37' E 135°26'0 0.0
2016-Aug-27 11:32N 34°37' E 135°26'0 0.0
2016-Aug-27 10:31N 34°37' E 135°26'0 0.0
2016-Aug-27 09:31N 34°37' E 135°26'0 0.0
2016-Aug-27 08:19N 34°37' E 135°26'0 0.0
2016-Aug-27 07:14N 34°37' E 135°26'0 0.0
2016-Aug-27 06:20N 34°37' E 135°26'0 0.0
2016-Aug-27 04:31N 34°37' E 135°26'0 0.0
2016-Aug-27 03:31N 34°37' E 135°26'0 0.0
2016-Aug-27 02:31N 34°37' E 135°26'0 0.0
2016-Aug-27 01:07N 34°37' E 135°26'0 0.0
2016-Aug-27 00:31N 34°37' E 135°26'0 0.0
2016-Aug-26 23:26N 34°37' E 135°26'0 0.0
2016-Aug-26 22:31N 34°37' E 135°26'0 0.0
2016-Aug-26 21:31N 34°37' E 135°26'6 5.8
2016-Aug-26 20:33N 34°36' E 135°19'1818.4
2016-Aug-26 19:33N 34°36' E 134°57'1 0.0
2016-Aug-25 14:34N 34°37' E 134°58'1717.2
2016-Aug-25 13:34N 34°37' E 135°18'6 5.3
2016-Aug-25 12:24N 34°37' E 135°26'0 0.0
2016-Aug-25 11:06N 34°37' E 135°26'0 0.0
2016-Aug-25 10:30N 34°37' E 135°26'0 0.0
2016-Aug-25 09:30N 34°37' E 135°26'0 0.0
2016-Aug-25 08:30N 34°37' E 135°26'0 0.0
2016-Aug-25 07:30N 34°37' E 135°26'0 0.0
2016-Aug-25 06:30N 34°37' E 135°26'0 0.0
2016-Aug-25 03:18N 34°37' E 135°26'0 0.0
2016-Aug-25 02:30N 34°37' E 135°26'0 0.0
2016-Aug-25 01:30N 34°37' E 135°26'0 0.0
2016-Aug-25 00:30N 34°37' E 135°26'0 0.0
2016-Aug-24 23:30N 34°37' E 135°26'0 0.0
2016-Aug-24 22:30N 34°37' E 135°26'0 0.0
2016-Aug-24 21:30N 34°37' E 135°26'6 6.0
2016-Aug-24 20:34N 34°35' E 135°19'1918.5
2016-Aug-24 19:32N 34°36' E 134°57'1 0.1
2016-Aug-23 14:32N 34°37' E 134°58'1818.1
2016-Aug-23 13:33N 34°37' E 135°19'6 5.3
2016-Aug-23 12:30N 34°37' E 135°26'0 0.0
2016-Aug-23 10:18N 34°37' E 135°26'0 0.0
2016-Aug-23 09:30N 34°37' E 135°26'0 0.0
2016-Aug-23 08:24N 34°37' E 135°26'0 0.0
2016-Aug-23 07:30N 34°37' E 135°26'0 0.0
2016-Aug-23 06:30N 34°37' E 135°26'0 0.0
2016-Aug-23 05:30N 34°37' E 135°26'0 0.0
2016-Aug-23 04:30N 34°37' E 135°26'0 0.0
2016-Aug-23 03:24N 34°37' E 135°26'0 0.0
2016-Aug-23 02:30N 34°37' E 135°26'0 0.0
2016-Aug-23 01:24N 34°37' E 135°26'0 0.0
2016-Aug-23 00:30N 34°37' E 135°26'0 0.0
2016-Aug-22 23:24N 34°37' E 135°26'0 0.0
2016-Aug-22 22:30N 34°37' E 135°26'0 0.0
2016-Aug-22 21:30N 34°37' E 135°26'5 5.5
2016-Aug-22 20:33N 34°36' E 135°20'1716.9
2016-Aug-22 19:34N 34°37' E 134°59'3 0.1
2016-Aug-21 14:33N 34°36' E 134°55'1918.8
2016-Aug-21 13:33N 34°37' E 135°18'6 5.3
2016-Aug-21 12:22N 34°37' E 135°26'0 0.0
2016-Aug-21 11:22N 34°37' E 135°26'0 0.0
2016-Aug-21 10:28N 34°37' E 135°26'0 0.0
2016-Aug-21 09:22N 34°37' E 135°26'0 0.0
2016-Aug-21 08:28N 34°37' E 135°26'0 0.0
2016-Aug-21 07:28N 34°37' E 135°26'0 0.0
2016-Aug-21 06:28N 34°37' E 135°26'0 0.0
2016-Aug-21 05:28N 34°37' E 135°26'0 0.0
2016-Aug-21 04:22N 34°37' E 135°26'0 0.0
2016-Aug-21 03:28N 34°37' E 135°26'0 0.0
2016-Aug-21 02:28N 34°37' E 135°26'0 0.0
2016-Aug-21 01:28N 34°37' E 135°26'0 0.0
2016-Aug-21 00:28N 34°37' E 135°26'0 0.0
2016-Aug-20 23:28N 34°37' E 135°26'0 0.0
2016-Aug-20 22:28N 34°37' E 135°26'0 0.0
2016-Aug-20 21:28N 34°37' E 135°26'5 5.9
2016-Aug-20 20:33N 34°36' E 135°20'1818.5
2016-Aug-20 19:33N 34°36' E 134°57'1 0.0
2016-Aug-19 14:33N 34°37' E 134°57'1817.9
2016-Aug-19 13:33N 34°36' E 135°18'6 5.4
2016-Aug-19 12:24N 34°37' E 135°26'0 0.0
2016-Aug-19 11:30N 34°37' E 135°26'0 0.0
2016-Aug-19 10:30N 34°37' E 135°26'0 0.0
2016-Aug-19 09:24N 34°37' E 135°26'0 0.0
2016-Aug-19 08:24N 34°37' E 135°26'0 0.0
2016-Aug-19 07:30N 34°37' E 135°26'0 0.0
2016-Aug-19 06:30N 34°37' E 135°26'0 0.0
2016-Aug-19 05:30N 34°37' E 135°26'0 0.0
2016-Aug-19 04:30N 34°37' E 135°26'0 0.0
2016-Aug-19 03:30N 34°37' E 135°26'0 0.0
2016-Aug-19 02:18N 34°37' E 135°26'0 0.0
2016-Aug-19 00:30N 34°37' E 135°26'0 0.0
2016-Aug-18 23:24N 34°37' E 135°26'0 0.0
2016-Aug-18 22:12N 34°37' E 135°26'0 0.0
2016-Aug-18 21:30N 34°37' E 135°26'5 5.1
2016-Aug-18 20:34N 34°36' E 135°20'1818.0
2016-Aug-18 19:33N 34°37' E 134°58'1 0.0
2016-Aug-17 14:33N 34°37' E 134°57'  
Track history (hours):
 
Tides and Currents Weather Stations Pressure Air Temp Water Temp Dewpoint Dewpoint Depression Visibility Wind Speed Wind Dir Waves Ship Positions

Orange8

Last reported at 2016-Aug-27 14:33 UTC. Time now 2016-Aug-27 22:15 UTC.
Position N 34°37' E 134°57'.

Length 164 m; draft 5 m.

Type: Passenger vessel. MMSI: 431501603.

Date/timePositionNaut miles runAvg speedWind from/ knotsBaromVisibWave heightAir tempDewpointWater temp
2016-Aug-27 14:33N 34°37' E 134°57'1717.2
2016-Aug-27 13:33N 34°36' E 135°18'6 5.7
2016-Aug-27 12:26N 34°37' E 135°26'0 0.0
2016-Aug-27 11:32N 34°37' E 135°26'0 0.0
2016-Aug-27 10:31N 34°37' E 135°26'0 0.0
2016-Aug-27 09:31N 34°37' E 135°26'0 0.0
2016-Aug-27 08:19N 34°37' E 135°26'0 0.0
2016-Aug-27 07:14N 34°37' E 135°26'0 0.0
2016-Aug-27 06:20N 34°37' E 135°26'0 0.0
2016-Aug-27 04:31N 34°37' E 135°26'0 0.0
2016-Aug-27 03:31N 34°37' E 135°26'0 0.0
2016-Aug-27 02:31N 34°37' E 135°26'0 0.0
2016-Aug-27 01:07N 34°37' E 135°26'0 0.0
2016-Aug-27 00:31N 34°37' E 135°26'0 0.0
2016-Aug-26 23:26N 34°37' E 135°26'0 0.0
2016-Aug-26 22:31N 34°37' E 135°26'0 0.0
2016-Aug-26 21:31N 34°37' E 135°26'6 5.8
2016-Aug-26 20:33N 34°36' E 135°19'1818.4
2016-Aug-26 19:33N 34°36' E 134°57'1 0.0
2016-Aug-25 14:34N 34°37' E 134°58'1717.2
2016-Aug-25 13:34N 34°37' E 135°18'6 5.3
2016-Aug-25 12:24N 34°37' E 135°26'0 0.0
2016-Aug-25 11:06N 34°37' E 135°26'0 0.0
2016-Aug-25 10:30N 34°37' E 135°26'0 0.0
2016-Aug-25 09:30N 34°37' E 135°26'0 0.0
2016-Aug-25 08:30N 34°37' E 135°26'0 0.0
2016-Aug-25 07:30N 34°37' E 135°26'0 0.0
2016-Aug-25 06:30N 34°37' E 135°26'0 0.0
2016-Aug-25 03:18N 34°37' E 135°26'0 0.0
2016-Aug-25 02:30N 34°37' E 135°26'0 0.0
2016-Aug-25 01:30N 34°37' E 135°26'0 0.0
2016-Aug-25 00:30N 34°37' E 135°26'0 0.0
2016-Aug-24 23:30N 34°37' E 135°26'0 0.0
2016-Aug-24 22:30N 34°37' E 135°26'0 0.0
2016-Aug-24 21:30N 34°37' E 135°26'6 6.0
2016-Aug-24 20:34N 34°35' E 135°19'1918.5
2016-Aug-24 19:32N 34°36' E 134°57'1 0.1
2016-Aug-23 14:32N 34°37' E 134°58'1818.1
2016-Aug-23 13:33N 34°37' E 135°19'6 5.3
2016-Aug-23 12:30N 34°37' E 135°26'0 0.0
2016-Aug-23 10:18N 34°37' E 135°26'0 0.0
2016-Aug-23 09:30N 34°37' E 135°26'0 0.0
2016-Aug-23 08:24N 34°37' E 135°26'0 0.0
2016-Aug-23 07:30N 34°37' E 135°26'0 0.0
2016-Aug-23 06:30N 34°37' E 135°26'0 0.0
2016-Aug-23 05:30N 34°37' E 135°26'0 0.0
2016-Aug-23 04:30N 34°37' E 135°26'0 0.0
2016-Aug-23 03:24N 34°37' E 135°26'0 0.0
2016-Aug-23 02:30N 34°37' E 135°26'0 0.0
2016-Aug-23 01:24N 34°37' E 135°26'0 0.0
2016-Aug-23 00:30N 34°37' E 135°26'0 0.0
2016-Aug-22 23:24N 34°37' E 135°26'0 0.0
2016-Aug-22 22:30N 34°37' E 135°26'0 0.0
2016-Aug-22 21:30N 34°37' E 135°26'5 5.5
2016-Aug-22 20:33N 34°36' E 135°20'1716.9
2016-Aug-22 19:34N 34°37' E 134°59'3 0.1
2016-Aug-21 14:33N 34°36' E 134°55'1918.8
2016-Aug-21 13:33N 34°37' E 135°18'6 5.3
2016-Aug-21 12:22N 34°37' E 135°26'0 0.0
2016-Aug-21 11:22N 34°37' E 135°26'0 0.0
2016-Aug-21 10:28N 34°37' E 135°26'0 0.0
2016-Aug-21 09:22N 34°37' E 135°26'0 0.0
2016-Aug-21 08:28N 34°37' E 135°26'0 0.0
2016-Aug-21 07:28N 34°37' E 135°26'0 0.0
2016-Aug-21 06:28N 34°37' E 135°26'0 0.0
2016-Aug-21 05:28N 34°37' E 135°26'0 0.0
2016-Aug-21 04:22N 34°37' E 135°26'0 0.0
2016-Aug-21 03:28N 34°37' E 135°26'0 0.0
2016-Aug-21 02:28N 34°37' E 135°26'0 0.0
2016-Aug-21 01:28N 34°37' E 135°26'0 0.0
2016-Aug-21 00:28N 34°37' E 135°26'0 0.0
2016-Aug-20 23:28N 34°37' E 135°26'0 0.0
2016-Aug-20 22:28N 34°37' E 135°26'0 0.0
2016-Aug-20 21:28N 34°37' E 135°26'5 5.9
2016-Aug-20 20:33N 34°36' E 135°20'1818.5
2016-Aug-20 19:33N 34°36' E 134°57'1 0.0
2016-Aug-19 14:33N 34°37' E 134°57'1817.9
2016-Aug-19 13:33N 34°36' E 135°18'6 5.4
2016-Aug-19 12:24N 34°37' E 135°26'0 0.0
2016-Aug-19 11:30N 34°37' E 135°26'0 0.0
2016-Aug-19 10:30N 34°37' E 135°26'0 0.0
2016-Aug-19 09:24N 34°37' E 135°26'0 0.0
2016-Aug-19 08:24N 34°37' E 135°26'0 0.0
2016-Aug-19 07:30N 34°37' E 135°26'0 0.0
2016-Aug-19 06:30N 34°37' E 135°26'0 0.0
2016-Aug-19 05:30N 34°37' E 135°26'0 0.0
2016-Aug-19 04:30N 34°37' E 135°26'0 0.0
2016-Aug-19 03:30N 34°37' E 135°26'0 0.0
2016-Aug-19 02:18N 34°37' E 135°26'0 0.0
2016-Aug-19 00:30N 34°37' E 135°26'0 0.0
2016-Aug-18 23:24N 34°37' E 135°26'0 0.0
2016-Aug-18 22:12N 34°37' E 135°26'0 0.0
2016-Aug-18 21:30N 34°37' E 135°26'5 5.1
2016-Aug-18 20:34N 34°36' E 135°20'1818.0
2016-Aug-18 19:33N 34°37' E 134°58'1 0.0
2016-Aug-17 14:33N 34°37' E 134°57'  

Dump ship's entire track history